sensor_id;sensor_type;location;lat;lon;timestamp;P1;durP1;ratioP1;P2;durP2;ratioP2
7747;SDS011;3918;42.564;23.164;2022-11-02T01:15:25;128.90;;;121.40;;
7747;SDS011;3918;42.564;23.164;2022-11-02T01:17:53;117.25;;;110.63;;
7747;SDS011;3918;42.564;23.164;2022-11-02T01:20:20;111.60;;;104.97;;
7747;SDS011;3918;42.564;23.164;2022-11-02T06:02:58;206.70;;;195.05;;
7747;SDS011;3918;42.564;23.164;2022-11-02T06:05:24;227.02;;;214.88;;
7747;SDS011;3918;42.564;23.164;2022-11-02T06:07:51;188.40;;;177.63;;
7747;SDS011;3918;42.564;23.164;2022-11-02T06:10:18;184.43;;;174.07;;
7747;SDS011;3918;42.564;23.164;2022-11-02T06:12:45;97.00;;;91.00;;
7747;SDS011;3918;42.564;23.164;2022-11-02T06:15:12;164.45;;;155.13;;
7747;SDS011;3918;42.564;23.164;2022-11-02T06:17:39;182.32;;;172.48;;
7747;SDS011;3918;42.564;23.164;2022-11-02T06:20:08;330.98;;;312.30;;
7747;SDS011;3918;42.564;23.164;2022-11-02T06:22:38;452.48;;;425.67;;
7747;SDS011;3918;42.564;23.164;2022-11-02T06:25:05;414.90;;;390.02;;
7747;SDS011;3918;42.564;23.164;2022-11-02T06:27:33;471.20;;;443.42;;
7747;SDS011;3918;42.564;23.164;2022-11-02T06:30:00;476.40;;;447.98;;
7747;SDS011;3918;42.564;23.164;2022-11-02T06:32:27;491.30;;;462.17;;
7747;SDS011;3918;42.564;23.164;2022-11-02T06:34:54;381.88;;;360.35;;
7747;SDS011;3918;42.564;23.164;2022-11-02T06:37:22;349.88;;;330.60;;
7747;SDS011;3918;42.564;23.164;2022-11-02T06:39:49;269.45;;;254.15;;
7747;SDS011;3918;42.564;23.164;2022-11-02T06:42:16;393.63;;;370.65;;
7747;SDS011;3918;42.564;23.164;2022-11-02T06:44:43;306.50;;;288.65;;
7747;SDS011;3918;42.564;23.164;2022-11-02T06:47:10;106.32;;;100.45;;
7747;SDS011;3918;42.564;23.164;2022-11-02T06:49:36;91.07;;;85.60;;
7747;SDS011;3918;42.564;23.164;2022-11-02T06:52:03;142.00;;;134.05;;
7747;SDS011;3918;42.564;23.164;2022-11-02T06:54:32;138.35;;;130.07;;
7747;SDS011;3918;42.564;23.164;2022-11-02T06:56:58;114.13;;;107.07;;
7747;SDS011;3918;42.564;23.164;2022-11-02T06:59:26;254.45;;;240.05;;
7747;SDS011;3918;42.564;23.164;2022-11-02T07:01:53;183.77;;;173.63;;
7747;SDS011;3918;42.564;23.164;2022-11-02T07:04:20;175.25;;;165.23;;
7747;SDS011;3918;42.564;23.164;2022-11-02T07:06:47;158.30;;;149.35;;
7747;SDS011;3918;42.564;23.164;2022-11-02T07:09:14;311.67;;;293.13;;
7747;SDS011;3918;42.564;23.164;2022-11-02T07:11:42;321.50;;;303.20;;
7747;SDS011;3918;42.564;23.164;2022-11-02T07:14:08;248.30;;;234.48;;
7747;SDS011;3918;42.564;23.164;2022-11-02T07:16:35;322.27;;;303.67;;
7747;SDS011;3918;42.564;23.164;2022-11-02T07:19:02;446.80;;;419.10;;
7747;SDS011;3918;42.564;23.164;2022-11-02T07:21:29;549.03;;;512.40;;
7747;SDS011;3918;42.564;23.164;2022-11-02T07:23:56;440.85;;;414.73;;
7747;SDS011;3918;42.564;23.164;2022-11-02T07:26:23;619.67;;;579.28;;
7747;SDS011;3918;42.564;23.164;2022-11-02T07:28:52;556.97;;;521.60;;
7747;SDS011;3918;42.564;23.164;2022-11-02T07:31:19;590.58;;;552.17;;
7747;SDS011;3918;42.564;23.164;2022-11-02T07:33:45;559.55;;;523.35;;
7747;SDS011;3918;42.564;23.164;2022-11-02T07:36:12;585.65;;;548.65;;
7747;SDS011;3918;42.564;23.164;2022-11-02T07:38:39;499.65;;;469.27;;
7747;SDS011;3918;42.564;23.164;2022-11-02T07:41:06;520.60;;;489.13;;
7747;SDS011;3918;42.564;23.164;2022-11-02T07:43:33;499.13;;;467.98;;
7747;SDS011;3918;42.564;23.164;2022-11-02T07:46:02;536.35;;;502.15;;
7747;SDS011;3918;42.564;23.164;2022-11-02T07:48:30;533.00;;;498.80;;
7747;SDS011;3918;42.564;23.164;2022-11-02T07:50:57;484.45;;;455.23;;
7747;SDS011;3918;42.564;23.164;2022-11-02T07:53:24;473.77;;;445.60;;
7747;SDS011;3918;42.564;23.164;2022-11-02T07:55:51;538.88;;;505.63;;
7747;SDS011;3918;42.564;23.164;2022-11-02T07:58:18;492.30;;;463.05;;
7747;SDS011;3918;42.564;23.164;2022-11-02T08:00:45;425.35;;;400.40;;
7747;SDS011;3918;42.564;23.164;2022-11-02T08:03:13;435.80;;;409.65;;
7747;SDS011;3918;42.564;23.164;2022-11-02T08:05:40;499.30;;;469.70;;
7747;SDS011;3918;42.564;23.164;2022-11-02T08:08:09;489.60;;;459.85;;
7747;SDS011;3918;42.564;23.164;2022-11-02T08:10:38;481.63;;;449.33;;
7747;SDS011;3918;42.564;23.164;2022-11-02T08:13:05;510.88;;;479.45;;
7747;SDS011;3918;42.564;23.164;2022-11-02T08:15:32;610.92;;;570.72;;
7747;SDS011;3918;42.564;23.164;2022-11-02T08:17:59;586.35;;;548.35;;
7747;SDS011;3918;42.564;23.164;2022-11-02T08:20:28;564.80;;;524.45;;
7747;SDS011;3918;42.564;23.164;2022-11-02T08:22:55;605.10;;;565.22;;
7747;SDS011;3918;42.564;23.164;2022-11-02T08:25:23;555.03;;;519.03;;
7747;SDS011;3918;42.564;23.164;2022-11-02T08:27:50;547.15;;;512.25;;
7747;SDS011;3918;42.564;23.164;2022-11-02T08:30:17;560.92;;;524.78;;
7747;SDS011;3918;42.564;23.164;2022-11-02T08:32:44;529.05;;;495.20;;
7747;SDS011;3918;42.564;23.164;2022-11-02T08:35:10;442.33;;;415.90;;
7747;SDS011;3918;42.564;23.164;2022-11-02T08:37:39;271.48;;;255.35;;
7747;SDS011;3918;42.564;23.164;2022-11-02T08:40:06;240.10;;;226.68;;
7747;SDS011;3918;42.564;23.164;2022-11-02T08:42:33;742.95;;;690.47;;
7747;SDS011;3918;42.564;23.164;2022-11-02T08:45:03;817.13;;;758.10;;
7747;SDS011;3918;42.564;23.164;2022-11-02T08:47:31;726.05;;;676.95;;
7747;SDS011;3918;42.564;23.164;2022-11-02T08:49:58;759.50;;;706.83;;
7747;SDS011;3918;42.564;23.164;2022-11-02T08:52:24;665.17;;;619.30;;
7747;SDS011;3918;42.564;23.164;2022-11-02T08:54:53;689.30;;;641.85;;
7747;SDS011;3918;42.564;23.164;2022-11-02T08:57:19;647.35;;;603.05;;
7747;SDS011;3918;42.564;23.164;2022-11-02T08:59:46;142.35;;;132.48;;
7747;SDS011;3918;42.564;23.164;2022-11-02T09:02:13;400.48;;;374.10;;
7747;SDS011;3918;42.564;23.164;2022-11-02T09:04:40;156.00;;;141.93;;
7747;SDS011;3918;42.564;23.164;2022-11-02T09:07:07;138.63;;;129.15;;
7747;SDS011;3918;42.564;23.164;2022-11-02T09:09:33;46.55;;;42.20;;
7747;SDS011;3918;42.564;23.164;2022-11-02T09:12:01;36.45;;;32.60;;
7747;SDS011;3918;42.564;23.164;2022-11-02T09:14:29;49.90;;;46.20;;
7747;SDS011;3918;42.564;23.164;2022-11-02T09:16:55;68.65;;;64.20;;
7747;SDS011;3918;42.564;23.164;2022-11-02T09:19:22;58.70;;;54.63;;
7747;SDS011;3918;42.564;23.164;2022-11-02T09:21:49;47.47;;;43.75;;
7747;SDS011;3918;42.564;23.164;2022-11-02T09:24:16;47.53;;;38.53;;
7747;SDS011;3918;42.564;23.164;2022-11-02T09:26:42;65.53;;;60.65;;
7747;SDS011;3918;42.564;23.164;2022-11-02T09:29:11;39.08;;;35.45;;
7747;SDS011;3918;42.564;23.164;2022-11-02T09:31:37;31.50;;;28.10;;
7747;SDS011;3918;42.564;23.164;2022-11-02T09:34:04;43.47;;;39.33;;
7747;SDS011;3918;42.564;23.164;2022-11-02T09:36:31;50.15;;;45.83;;
7747;SDS011;3918;42.564;23.164;2022-11-02T09:38:59;43.65;;;39.90;;
7747;SDS011;3918;42.564;23.164;2022-11-02T09:41:28;45.53;;;42.22;;
7747;SDS011;3918;42.564;23.164;2022-11-02T09:44:02;61.40;;;56.13;;
7747;SDS011;3918;42.564;23.164;2022-11-02T09:46:39;77.78;;;72.28;;
7747;SDS011;3918;42.564;23.164;2022-11-02T09:49:09;54.53;;;50.60;;
7747;SDS011;3918;42.564;23.164;2022-11-02T09:51:41;123.50;;;115.72;;
7747;SDS011;3918;42.564;23.164;2022-11-02T09:54:12;122.85;;;114.93;;
7747;SDS011;3918;42.564;23.164;2022-11-02T09:56:43;101.78;;;95.60;;
7747;SDS011;3918;42.564;23.164;2022-11-02T09:59:12;196.63;;;182.88;;
7747;SDS011;3918;42.564;23.164;2022-11-02T10:01:48;235.85;;;221.13;;
7747;SDS011;3918;42.564;23.164;2022-11-02T10:07:31;70.45;;;64.30;;
7747;SDS011;3918;42.564;23.164;2022-11-02T10:10:10;93.82;;;87.85;;
7747;SDS011;3918;42.564;23.164;2022-11-02T10:12:42;209.88;;;197.40;;
7747;SDS011;3918;42.564;23.164;2022-11-02T10:15:17;79.30;;;73.53;;
7747;SDS011;3918;42.564;23.164;2022-11-02T10:17:49;60.17;;;55.33;;
7747;SDS011;3918;42.564;23.164;2022-11-02T10:20:23;42.63;;;39.03;;
7747;SDS011;3918;42.564;23.164;2022-11-02T10:22:51;70.30;;;65.15;;
7747;SDS011;3918;42.564;23.164;2022-11-02T10:25:23;58.50;;;54.75;;
7747;SDS011;3918;42.564;23.164;2022-11-02T10:27:52;45.58;;;40.40;;
7747;SDS011;3918;42.564;23.164;2022-11-02T10:30:28;58.17;;;53.50;;
7747;SDS011;3918;42.564;23.164;2022-11-02T10:32:56;45.95;;;39.53;;
7747;SDS011;3918;42.564;23.164;2022-11-02T10:35:26;48.95;;;40.58;;
7747;SDS011;3918;42.564;23.164;2022-11-02T10:38:03;46.22;;;42.50;;
7747;SDS011;3918;42.564;23.164;2022-11-02T10:40:46;44.20;;;41.33;;
7747;SDS011;3918;42.564;23.164;2022-11-02T10:43:27;48.55;;;44.05;;
7747;SDS011;3918;42.564;23.164;2022-11-02T10:46:13;140.27;;;131.40;;
7747;SDS011;3918;42.564;23.164;2022-11-02T10:48:54;40.80;;;37.83;;
7747;SDS011;3918;42.564;23.164;2022-11-02T10:51:30;43.10;;;39.22;;
7747;SDS011;3918;42.564;23.164;2022-11-02T10:53:57;57.00;;;52.70;;
7747;SDS011;3918;42.564;23.164;2022-11-02T10:56:27;60.03;;;55.10;;
7747;SDS011;3918;42.564;23.164;2022-11-02T10:58:58;59.47;;;54.72;;
7747;SDS011;3918;42.564;23.164;2022-11-02T11:01:28;65.88;;;61.22;;
7747;SDS011;3918;42.564;23.164;2022-11-02T11:03:59;51.13;;;47.28;;
7747;SDS011;3918;42.564;23.164;2022-11-02T11:06:27;62.88;;;58.65;;
7747;SDS011;3918;42.564;23.164;2022-11-02T11:09:00;56.13;;;51.88;;
7747;SDS011;3918;42.564;23.164;2022-11-02T11:11:30;219.55;;;206.65;;
7747;SDS011;3918;42.564;23.164;2022-11-02T11:13:59;51.72;;;47.92;;
7747;SDS011;3918;42.564;23.164;2022-11-02T11:16:30;57.92;;;53.78;;
7747;SDS011;3918;42.564;23.164;2022-11-02T11:19:17;46.85;;;42.53;;
7747;SDS011;3918;42.564;23.164;2022-11-02T11:21:47;64.80;;;60.15;;
7747;SDS011;3918;42.564;23.164;2022-11-02T11:24:19;256.05;;;240.38;;
7747;SDS011;3918;42.564;23.164;2022-11-02T11:29:49;94.95;;;87.40;;
7747;SDS011;3918;42.564;23.164;2022-11-02T11:32:19;108.85;;;100.65;;
7747;SDS011;3918;42.564;23.164;2022-11-02T11:34:56;62.00;;;57.30;;
7747;SDS011;3918;42.564;23.164;2022-11-02T11:37:26;136.48;;;127.97;;
7747;SDS011;3918;42.564;23.164;2022-11-02T11:39:54;180.10;;;168.70;;
7747;SDS011;3918;42.564;23.164;2022-11-02T11:42:25;58.60;;;50.70;;
7747;SDS011;3918;42.564;23.164;2022-11-02T11:44:55;145.45;;;134.88;;
7747;SDS011;3918;42.564;23.164;2022-11-02T11:47:25;85.43;;;79.85;;
7747;SDS011;3918;42.564;23.164;2022-11-02T11:49:56;94.75;;;87.53;;
7747;SDS011;3918;42.564;23.164;2022-11-02T11:52:28;105.45;;;94.07;;
7747;SDS011;3918;42.564;23.164;2022-11-02T11:54:57;97.20;;;90.70;;
7747;SDS011;3918;42.564;23.164;2022-11-02T11:57:25;108.55;;;99.45;;
7747;SDS011;3918;42.564;23.164;2022-11-02T11:59:55;88.13;;;82.25;;
7747;SDS011;3918;42.564;23.164;2022-11-02T12:02:26;219.77;;;205.73;;
7747;SDS011;3918;42.564;23.164;2022-11-02T12:05:00;74.47;;;52.17;;
7747;SDS011;3918;42.564;23.164;2022-11-02T12:07:34;62.50;;;57.53;;
7747;SDS011;3918;42.564;23.164;2022-11-02T12:10:30;69.38;;;63.97;;
7747;SDS011;3918;42.564;23.164;2022-11-02T12:13:09;57.40;;;52.72;;
7747;SDS011;3918;42.564;23.164;2022-11-02T12:15:47;113.60;;;106.38;;
7747;SDS011;3918;42.564;23.164;2022-11-02T12:18:32;52.00;;;47.17;;
7747;SDS011;3918;42.564;23.164;2022-11-02T12:21:17;62.00;;;55.88;;
7747;SDS011;3918;42.564;23.164;2022-11-02T12:24:05;87.35;;;81.07;;
7747;SDS011;3918;42.564;23.164;2022-11-02T12:26:49;79.47;;;73.82;;
7747;SDS011;3918;42.564;23.164;2022-11-02T12:32:30;147.32;;;138.80;;
7747;SDS011;3918;42.564;23.164;2022-11-02T12:35:23;44.10;;;40.35;;
7747;SDS011;3918;42.564;23.164;2022-11-02T12:38:09;43.33;;;39.10;;
7747;SDS011;3918;42.564;23.164;2022-11-02T12:40:58;35.70;;;32.95;;
7747;SDS011;3918;42.564;23.164;2022-11-02T12:43:38;45.58;;;39.25;;
7747;SDS011;3918;42.564;23.164;2022-11-02T12:46:09;47.45;;;43.08;;
7747;SDS011;3918;42.564;23.164;2022-11-02T12:48:57;54.28;;;35.40;;
7747;SDS011;3918;42.564;23.164;2022-11-02T12:51:36;71.07;;;49.60;;
7747;SDS011;3918;42.564;23.164;2022-11-02T12:54:11;60.97;;;55.75;;
7747;SDS011;3918;42.564;23.164;2022-11-02T12:56:45;70.43;;;66.03;;
7747;SDS011;3918;42.564;23.164;2022-11-02T12:59:15;81.55;;;76.07;;
7747;SDS011;3918;42.564;23.164;2022-11-02T13:01:46;52.97;;;48.80;;
7747;SDS011;3918;42.564;23.164;2022-11-02T13:04:18;120.70;;;112.93;;
7747;SDS011;3918;42.564;23.164;2022-11-02T13:06:47;54.17;;;50.00;;
7747;SDS011;3918;42.564;23.164;2022-11-02T13:09:20;120.75;;;50.92;;
7747;SDS011;3918;42.564;23.164;2022-11-02T13:11:51;62.22;;;58.03;;
7747;SDS011;3918;42.564;23.164;2022-11-02T13:14:22;90.88;;;85.13;;
7747;SDS011;3918;42.564;23.164;2022-11-02T13:16:54;75.57;;;69.22;;
7747;SDS011;3918;42.564;23.164;2022-11-02T13:19:28;118.97;;;111.95;;
7747;SDS011;3918;42.564;23.164;2022-11-02T13:21:59;101.50;;;93.65;;
7747;SDS011;3918;42.564;23.164;2022-11-02T13:24:32;123.53;;;115.93;;
7747;SDS011;3918;42.564;23.164;2022-11-02T13:27:04;145.98;;;136.85;;
7747;SDS011;3918;42.564;23.164;2022-11-02T13:29:34;110.85;;;103.13;;
7747;SDS011;3918;42.564;23.164;2022-11-02T13:32:14;126.20;;;118.55;;
7747;SDS011;3918;42.564;23.164;2022-11-02T13:34:45;126.70;;;119.18;;
7747;SDS011;3918;42.564;23.164;2022-11-02T13:37:16;129.43;;;115.18;;
7747;SDS011;3918;42.564;23.164;2022-11-02T13:39:50;150.73;;;140.85;;
7747;SDS011;3918;42.564;23.164;2022-11-02T13:42:34;152.00;;;143.15;;
7747;SDS011;3918;42.564;23.164;2022-11-02T13:45:21;140.57;;;129.98;;
7747;SDS011;3918;42.564;23.164;2022-11-02T13:48:04;181.60;;;170.85;;
7747;SDS011;3918;42.564;23.164;2022-11-02T13:50:46;110.95;;;103.75;;
7747;SDS011;3918;42.564;23.164;2022-11-02T13:53:16;350.55;;;328.73;;
7747;SDS011;3918;42.564;23.164;2022-11-02T13:55:49;133.38;;;123.25;;
7747;SDS011;3918;42.564;23.164;2022-11-02T13:58:21;205.55;;;193.63;;
7747;SDS011;3918;42.564;23.164;2022-11-02T14:00:50;91.53;;;85.45;;
7747;SDS011;3918;42.564;23.164;2022-11-02T14:03:21;125.22;;;118.13;;
7747;SDS011;3918;42.564;23.164;2022-11-02T14:05:53;57.95;;;53.80;;
7747;SDS011;3918;42.564;23.164;2022-11-02T14:08:24;200.73;;;189.07;;
7747;SDS011;3918;42.564;23.164;2022-11-02T14:11:05;163.63;;;153.95;;
7747;SDS011;3918;42.564;23.164;2022-11-02T14:16:57;238.88;;;223.07;;
7747;SDS011;3918;42.564;23.164;2022-11-02T14:19:47;245.10;;;231.40;;
7747;SDS011;3918;42.564;23.164;2022-11-02T14:22:19;245.57;;;231.30;;
7747;SDS011;3918;42.564;23.164;2022-11-02T14:24:53;242.70;;;229.00;;
7747;SDS011;3918;42.564;23.164;2022-11-02T14:27:31;268.15;;;252.98;;
7747;SDS011;3918;42.564;23.164;2022-11-02T14:29:57;412.30;;;388.60;;
7747;SDS011;3918;42.564;23.164;2022-11-02T14:32:34;325.85;;;306.67;;
7747;SDS011;3918;42.564;23.164;2022-11-02T14:35:13;279.70;;;263.02;;
7747;SDS011;3918;42.564;23.164;2022-11-02T14:37:55;126.63;;;118.32;;
7747;SDS011;3918;42.564;23.164;2022-11-02T14:40:44;117.50;;;110.18;;
7747;SDS011;3918;42.564;23.164;2022-11-02T14:43:34;84.65;;;79.07;;
7747;SDS011;3918;42.564;23.164;2022-11-02T14:46:20;48.42;;;44.38;;
7747;SDS011;3918;42.564;23.164;2022-11-02T14:49:00;116.13;;;108.35;;
7747;SDS011;3918;42.564;23.164;2022-11-02T14:51:28;90.75;;;85.03;;
7747;SDS011;3918;42.564;23.164;2022-11-02T14:53:58;89.07;;;83.50;;
7747;SDS011;3918;42.564;23.164;2022-11-02T14:59:20;96.50;;;89.78;;
7747;SDS011;3918;42.564;23.164;2022-11-02T15:01:52;151.73;;;141.55;;
7747;SDS011;3918;42.564;23.164;2022-11-02T15:04:22;127.07;;;119.65;;
7747;SDS011;3918;42.564;23.164;2022-11-02T15:06:51;118.95;;;111.85;;
7747;SDS011;3918;42.564;23.164;2022-11-02T15:12:32;277.17;;;261.42;;
7747;SDS011;3918;42.564;23.164;2022-11-02T15:17:59;274.08;;;258.50;;
7747;SDS011;3918;42.564;23.164;2022-11-02T15:23:49;294.52;;;278.17;;
7747;SDS011;3918;42.564;23.164;2022-11-02T15:26:23;304.23;;;286.92;;
7747;SDS011;3918;42.564;23.164;2022-11-02T15:28:55;294.15;;;278.13;;
7747;SDS011;3918;42.564;23.164;2022-11-02T15:31:27;361.33;;;341.33;;
7747;SDS011;3918;42.564;23.164;2022-11-02T15:33:55;345.80;;;326.40;;
7747;SDS011;3918;42.564;23.164;2022-11-02T15:36:26;347.67;;;328.25;;
7747;SDS011;3918;42.564;23.164;2022-11-02T15:38:56;269.30;;;254.57;;
7747;SDS011;3918;42.564;23.164;2022-11-02T15:41:27;180.88;;;170.18;;
7747;SDS011;3918;42.564;23.164;2022-11-02T15:47:09;128.85;;;121.35;;
7747;SDS011;3918;42.564;23.164;2022-11-02T15:56:00;244.60;;;230.95;;
7747;SDS011;3918;42.564;23.164;2022-11-02T15:58:59;254.20;;;240.48;;
7747;SDS011;3918;42.564;23.164;2022-11-02T16:02:01;298.85;;;282.23;;
7747;SDS011;3918;42.564;23.164;2022-11-02T16:04:38;263.92;;;249.15;;
7747;SDS011;3918;42.564;23.164;2022-11-02T16:07:10;282.88;;;266.38;;
7747;SDS011;3918;42.564;23.164;2022-11-02T16:09:43;277.08;;;260.52;;
7747;SDS011;3918;42.564;23.164;2022-11-02T16:12:11;288.75;;;273.20;;
7747;SDS011;3918;42.564;23.164;2022-11-02T16:14:40;273.13;;;257.98;;
7747;SDS011;3918;42.564;23.164;2022-11-02T16:17:17;241.40;;;227.75;;
7747;SDS011;3918;42.564;23.164;2022-11-02T16:19:50;250.48;;;236.65;;
7747;SDS011;3918;42.564;23.164;2022-11-02T16:22:24;279.77;;;264.08;;
7747;SDS011;3918;42.564;23.164;2022-11-02T16:24:52;246.70;;;232.32;;
7747;SDS011;3918;42.564;23.164;2022-11-02T16:27:20;230.30;;;217.02;;
7747;SDS011;3918;42.564;23.164;2022-11-02T16:29:47;179.48;;;168.98;;
7747;SDS011;3918;42.564;23.164;2022-11-02T16:32:15;269.08;;;253.95;;
7747;SDS011;3918;42.564;23.164;2022-11-02T16:34:42;306.92;;;289.35;;
7747;SDS011;3918;42.564;23.164;2022-11-02T16:37:12;288.48;;;271.90;;
7747;SDS011;3918;42.564;23.164;2022-11-02T16:39:43;283.08;;;267.35;;
7747;SDS011;3918;42.564;23.164;2022-11-02T16:42:15;251.07;;;236.73;;
7747;SDS011;3918;42.564;23.164;2022-11-02T16:44:52;254.10;;;240.40;;
7747;SDS011;3918;42.564;23.164;2022-11-02T16:47:26;251.48;;;237.88;;
7747;SDS011;3918;42.564;23.164;2022-11-02T16:49:59;261.80;;;247.23;;
7747;SDS011;3918;42.564;23.164;2022-11-02T16:52:30;213.65;;;201.15;;
7747;SDS011;3918;42.564;23.164;2022-11-02T16:54:58;243.38;;;229.82;;
7747;SDS011;3918;42.564;23.164;2022-11-02T16:57:25;159.32;;;150.40;;
7747;SDS011;3918;42.564;23.164;2022-11-02T16:59:55;160.23;;;151.15;;
7747;SDS011;3918;42.564;23.164;2022-11-02T17:02:28;148.68;;;140.25;;
7747;SDS011;3918;42.564;23.164;2022-11-02T17:04:58;161.82;;;152.20;;
7747;SDS011;3918;42.564;23.164;2022-11-02T17:07:27;145.20;;;136.70;;
7747;SDS011;3918;42.564;23.164;2022-11-02T17:09:57;153.85;;;145.38;;
7747;SDS011;3918;42.564;23.164;2022-11-02T17:12:30;172.73;;;162.55;;
7747;SDS011;3918;42.564;23.164;2022-11-02T17:14:59;178.80;;;168.43;;
7747;SDS011;3918;42.564;23.164;2022-11-02T17:17:30;186.43;;;173.32;;
7747;SDS011;3918;42.564;23.164;2022-11-02T17:20:05;77.45;;;72.03;;
7747;SDS011;3918;42.564;23.164;2022-11-02T17:22:49;112.13;;;105.53;;
7747;SDS011;3918;42.564;23.164;2022-11-02T17:25:22;188.32;;;177.60;;
7747;SDS011;3918;42.564;23.164;2022-11-02T17:27:50;299.08;;;282.60;;
7747;SDS011;3918;42.564;23.164;2022-11-02T17:33:17;444.67;;;418.70;;
7747;SDS011;3918;42.564;23.164;2022-11-02T17:35:49;423.25;;;398.27;;
7747;SDS011;3918;42.564;23.164;2022-11-02T17:38:20;439.63;;;413.52;;
7747;SDS011;3918;42.564;23.164;2022-11-02T17:40:50;444.20;;;418.17;;
7747;SDS011;3918;42.564;23.164;2022-11-02T17:43:18;507.08;;;475.90;;
7747;SDS011;3918;42.564;23.164;2022-11-02T17:45:44;516.42;;;484.75;;
7747;SDS011;3918;42.564;23.164;2022-11-02T17:48:11;505.88;;;474.83;;
7747;SDS011;3918;42.564;23.164;2022-11-02T17:50:38;519.15;;;487.30;;
7747;SDS011;3918;42.564;23.164;2022-11-02T17:53:09;539.30;;;505.20;;
7747;SDS011;3918;42.564;23.164;2022-11-02T17:55:38;511.92;;;480.75;;
7747;SDS011;3918;42.564;23.164;2022-11-02T17:58:05;565.25;;;528.10;;
7747;SDS011;3918;42.564;23.164;2022-11-02T18:00:32;514.33;;;482.30;;
7747;SDS011;3918;42.564;23.164;2022-11-02T18:03:00;563.95;;;527.92;;
7747;SDS011;3918;42.564;23.164;2022-11-02T18:05:29;565.08;;;527.45;;
7747;SDS011;3918;42.564;23.164;2022-11-02T18:07:59;543.75;;;508.92;;
7747;SDS011;3918;42.564;23.164;2022-11-02T18:10:26;514.90;;;482.58;;
7747;SDS011;3918;42.564;23.164;2022-11-02T18:12:57;437.00;;;410.60;;
7747;SDS011;3918;42.564;23.164;2022-11-02T18:15:24;473.98;;;445.38;;
7747;SDS011;3918;42.564;23.164;2022-11-02T18:17:53;461.48;;;434.38;;
7747;SDS011;3918;42.564;23.164;2022-11-02T18:20:20;419.70;;;395.25;;
7747;SDS011;3918;42.564;23.164;2022-11-02T18:22:48;411.40;;;387.15;;
7747;SDS011;3918;42.564;23.164;2022-11-02T18:25:16;475.83;;;446.98;;
7747;SDS011;3918;42.564;23.164;2022-11-02T18:27:44;467.35;;;439.77;;
7747;SDS011;3918;42.564;23.164;2022-11-02T18:30:14;535.33;;;501.75;;
7747;SDS011;3918;42.564;23.164;2022-11-02T18:32:42;576.53;;;539.58;;
7747;SDS011;3918;42.564;23.164;2022-11-02T18:35:12;599.70;;;559.90;;
7747;SDS011;3918;42.564;23.164;2022-11-02T18:37:40;647.97;;;604.72;;
7747;SDS011;3918;42.564;23.164;2022-11-02T18:40:08;708.75;;;660.70;;
7747;SDS011;3918;42.564;23.164;2022-11-02T18:42:37;643.95;;;600.72;;
7747;SDS011;3918;42.564;23.164;2022-11-02T18:45:05;666.35;;;621.45;;
7747;SDS011;3918;42.564;23.164;2022-11-02T18:47:34;582.75;;;544.80;;
7747;SDS011;3918;42.564;23.164;2022-11-02T18:50:01;258.38;;;243.18;;
7747;SDS011;3918;42.564;23.164;2022-11-02T18:52:29;193.25;;;180.90;;
7747;SDS011;3918;42.564;23.164;2022-11-02T18:54:55;111.47;;;101.63;;
7747;SDS011;3918;42.564;23.164;2022-11-02T18:57:27;120.45;;;112.22;;
7747;SDS011;3918;42.564;23.164;2022-11-02T18:59:54;44.80;;;41.67;;
7747;SDS011;3918;42.564;23.164;2022-11-02T19:02:20;61.22;;;57.05;;
7747;SDS011;3918;42.564;23.164;2022-11-02T19:04:49;81.78;;;76.07;;
7747;SDS011;3918;42.564;23.164;2022-11-02T19:07:15;86.70;;;81.20;;
7747;SDS011;3918;42.564;23.164;2022-11-02T19:09:59;124.95;;;117.00;;
7747;SDS011;3918;42.564;23.164;2022-11-02T19:12:27;110.35;;;103.32;;
7747;SDS011;3918;42.564;23.164;2022-11-02T19:14:55;102.07;;;95.45;;
7747;SDS011;3918;42.564;23.164;2022-11-02T19:17:22;265.45;;;250.45;;
7747;SDS011;3918;42.564;23.164;2022-11-02T19:19:51;180.38;;;169.20;;
7747;SDS011;3918;42.564;23.164;2022-11-02T19:22:19;265.38;;;250.18;;
7747;SDS011;3918;42.564;23.164;2022-11-02T19:24:47;335.27;;;316.33;;
7747;SDS011;3918;42.564;23.164;2022-11-02T19:27:15;340.90;;;321.45;;
7747;SDS011;3918;42.564;23.164;2022-11-02T19:29:43;338.88;;;319.33;;
7747;SDS011;3918;42.564;23.164;2022-11-02T19:32:10;238.73;;;225.25;;
7747;SDS011;3918;42.564;23.164;2022-11-02T19:34:37;173.10;;;162.00;;
7747;SDS011;3918;42.564;23.164;2022-11-02T19:37:06;121.25;;;113.85;;
7747;SDS011;3918;42.564;23.164;2022-11-02T19:39:33;108.18;;;101.32;;
7747;SDS011;3918;42.564;23.164;2022-11-02T19:42:00;255.77;;;240.88;;
7747;SDS011;3918;42.564;23.164;2022-11-02T19:44:28;446.75;;;419.88;;
7747;SDS011;3918;42.564;23.164;2022-11-02T19:46:55;400.25;;;376.60;;
7747;SDS011;3918;42.564;23.164;2022-11-02T19:49:22;323.83;;;304.80;;
7747;SDS011;3918;42.564;23.164;2022-11-02T19:51:49;256.45;;;241.57;;
7747;SDS011;3918;42.564;23.164;2022-11-02T19:54:17;114.38;;;107.22;;
7747;SDS011;3918;42.564;23.164;2022-11-02T19:56:43;101.03;;;94.90;;
7747;SDS011;3918;42.564;23.164;2022-11-02T19:59:10;52.05;;;48.33;;
